Time;durP1;ratioP1;P1;durP2;ratioP2;P2;SDS_P1;SDS_P2;PMS_P1;PMS_P2;Temp;Humidity;BMP_temperature;BMP_pressure;BME280_temperature;BME280_humidity;BME280_pressure;Samples;Min_cycle;Max_cycle;Signal;HPM_P1;HPM_P2
2021/09/28 00:01:56;;;;;;;11.13;4.68;;;;;;;;;;5074965;28;20056;-69
2021/09/28 00:04:41;;;;;;;8.80;5.10;;;;;;;;;;5074878;28;20056;-69
2021/09/28 00:07:27;;;;;;;7.28;4.70;;;;;;;;;;5078190;28;20051;-69
2021/09/28 00:10:12;;;;;;;11.50;5.28;;;;;;;;;;5077751;28;20095;-69
2021/09/28 00:12:57;;;;;;;8.85;5.22;;;;;;;;;;5077632;28;20052;-69
2021/09/28 00:15:43;;;;;;;10.40;6.15;;;;;;;;;;5093194;28;20055;-69
2021/09/28 00:18:28;;;;;;;7.53;5.03;;;;;;;;;;5074876;28;20047;-69
2021/09/28 00:21:13;;;;;;;11.05;5.45;;;;;;;;;;5075095;28;20051;-69
2021/09/28 00:23:58;;;;;;;8.07;5.75;;;;;;;;;;5077288;28;20056;-70
2021/09/28 00:26:43;;;;;;;10.02;5.80;;;;;;;;;;5074649;28;20506;-69
2021/09/28 00:29:28;;;;;;;13.05;5.47;;;;;;;;;;5074849;28;20048;-69
2021/09/28 00:32:13;;;;;;;8.70;4.70;;;;;;;;;;5074486;28;20064;-69
2021/09/28 00:34:59;;;;;;;11.77;5.22;;;;;;;;;;5074456;28;20494;-69
2021/09/28 00:37:44;;;;;;;8.38;4.43;;;;;;;;;;5074796;28;20444;-69
2021/09/28 00:40:30;;;;;;;11.80;5.55;;;;;;;;;;5073630;28;20056;-69
2021/09/28 00:43:15;;;;;;;9.98;5.50;;;;;;;;;;5092622;28;20448;-69
2021/09/28 00:46:01;;;;;;;8.98;6.40;;;;;;;;;;5074281;28;20055;-69
2021/09/28 00:48:46;;;;;;;8.23;5.35;;;;;;;;;;5074354;28;20056;-69
2021/09/28 00:51:31;;;;;;;13.75;6.28;;;;;;;;;;5074284;28;20072;-69
2021/09/28 00:54:16;;;;;;;17.85;7.53;;;;;;;;;;5074334;28;20052;-69
2021/09/28 00:57:01;;;;;;;12.77;7.30;;;;;;;;;;5074124;28;20052;-69
2021/09/28 00:59:46;;;;;;;12.55;6.70;;;;;;;;;;5074212;28;20553;-69
2021/09/28 01:02:31;;;;;;;12.88;7.03;;;;;;;;;;5076963;28;20123;-69
2021/09/28 01:05:17;;;;;;;10.13;7.90;;;;;;;;;;5076827;28;20048;-69
2021/09/28 01:08:02;;;;;;;12.73;7.63;;;;;;;;;;5074127;28;20048;-69
2021/09/28 01:10:47;;;;;;;10.43;7.85;;;;;;;;;;5092445;28;20587;-69
2021/09/28 01:13:32;;;;;;;13.13;8.23;;;;;;;;;;5073748;28;20119;-69
2021/09/28 01:16:17;;;;;;;16.65;9.50;;;;;;;;;;5076723;28;20051;-69
2021/09/28 01:19:03;;;;;;;14.40;8.13;;;;;;;;;;5074078;28;20052;-69
2021/09/28 01:21:48;;;;;;;16.42;9.60;;;;;;;;;;5077071;28;20131;-69
2021/09/28 01:24:34;;;;;;;10.40;8.43;;;;;;;;;;5092030;28;20127;-69
2021/09/28 01:27:19;;;;;;;11.15;8.43;;;;;;;;;;5091992;28;20040;-69
2021/09/28 01:30:06;;;;;;;14.73;9.45;;;;;;;;;;5073934;28;20052;-69
2021/09/28 01:32:51;;;;;;;16.52;10.93;;;;;;;;;;5073800;28;20052;-69
2021/09/28 01:35:38;;;;;;;14.85;9.43;;;;;;;;;;5073555;28;20093;-69
2021/09/28 01:38:23;;;;;;;19.40;11.50;;;;;;;;;;5073856;28;20123;-69
2021/09/28 01:41:08;;;;;;;15.40;10.70;;;;;;;;;;5091857;28;20502;-69
2021/09/28 01:44:04;;;;;;;19.48;11.18;;;;;;;;;;5076509;28;20436;-69
2021/09/28 01:46:50;;;;;;;17.50;10.93;;;;;;;;;;5076312;28;20052;-69
2021/09/28 01:49:35;;;;;;;14.20;10.90;;;;;;;;;;5076461;28;20052;-69
2021/09/28 01:52:20;;;;;;;15.02;9.18;;;;;;;;;;5080345;28;20502;-69
2021/09/28 01:55:06;;;;;;;17.67;10.07;;;;;;;;;;5077429;28;20052;-69
2021/09/28 01:57:56;;;;;;;20.65;11.23;;;;;;;;;;5080601;28;20127;-69
2021/09/28 02:00:41;;;;;;;18.83;12.23;;;;;;;;;;5077530;28;20056;-69
2021/09/28 02:03:27;;;;;;;20.70;13.35;;;;;;;;;;5077271;28;20060;-69
2021/09/28 02:06:12;;;;;;;24.45;14.75;;;;;;;;;;5077421;28;20060;-69
2021/09/28 02:08:57;;;;;;;20.60;14.77;;;;;;;;;;5077457;28;20087;-69
2021/09/28 02:11:42;;;;;;;26.45;16.08;;;;;;;;;;5077163;28;20059;-69
2021/09/28 02:14:28;;;;;;;24.80;15.57;;;;;;;;;;5075814;28;20437;-69
2021/09/28 02:17:14;;;;;;;25.83;15.95;;;;;;;;;;5076786;28;20055;-69
2021/09/28 02:19:59;;;;;;;25.40;16.38;;;;;;;;;;5077167;28;20095;-69
2021/09/28 02:22:44;;;;;;;26.55;16.38;;;;;;;;;;5077277;28;20468;-69
2021/09/28 02:25:29;;;;;;;25.45;16.73;;;;;;;;;;5076689;28;20069;-69
2021/09/28 02:28:14;;;;;;;20.35;15.55;;;;;;;;;;5077296;28;20060;-69
2021/09/28 02:30:59;;;;;;;25.52;15.45;;;;;;;;;;5077224;28;20456;-69
2021/09/28 02:33:44;;;;;;;26.42;15.27;;;;;;;;;;5076621;28;20051;-69
2021/09/28 02:36:29;;;;;;;27.25;16.35;;;;;;;;;;5076838;28;20044;-69
2021/09/28 02:39:14;;;;;;;21.10;16.08;;;;;;;;;;5094904;28;20052;-69
2021/09/28 02:42:00;;;;;;;23.10;15.35;;;;;;;;;;5095020;28;20549;-69
2021/09/28 02:44:48;;;;;;;25.13;16.10;;;;;;;;;;5076539;28;20060;-68
2021/09/28 02:47:33;;;;;;;26.10;16.65;;;;;;;;;;5076414;28;20060;-70
2021/09/28 02:50:18;;;;;;;23.67;15.50;;;;;;;;;;5076615;28;20052;-70
2021/09/28 02:53:03;;;;;;;25.23;16.48;;;;;;;;;;5076509;28;20127;-69
2021/09/28 02:55:48;;;;;;;30.38;17.45;;;;;;;;;;5076128;28;20056;-69
2021/09/28 02:58:33;;;;;;;22.27;16.23;;;;;;;;;;5076508;28;20502;-69
2021/09/28 03:01:18;;;;;;;26.92;16.00;;;;;;;;;;5094526;28;20123;-69
2021/09/28 03:04:05;;;;;;;27.67;16.08;;;;;;;;;;5075769;28;20441;-69
2021/09/28 03:06:50;;;;;;;25.20;16.45;;;;;;;;;;5076328;28;20055;-69
2021/09/28 03:09:35;;;;;;;27.20;16.23;;;;;;;;;;5076283;28;20056;-69
2021/09/28 03:12:20;;;;;;;30.40;16.13;;;;;;;;;;5076354;28;20056;-69
2021/09/28 03:15:06;;;;;;;28.63;16.85;;;;;;;;;;5075933;28;20052;-69
2021/09/28 03:17:51;;;;;;;28.55;16.52;;;;;;;;;;5078876;28;20055;-69
2021/09/28 03:20:36;;;;;;;27.67;16.30;;;;;;;;;;5076150;28;20056;-70
2021/09/28 03:23:21;;;;;;;32.20;19.35;;;;;;;;;;5094285;28;20127;-70
2021/09/28 03:26:06;;;;;;;26.73;17.45;;;;;;;;;;5094064;28;20048;-70
2021/09/28 03:28:52;;;;;;;29.70;18.15;;;;;;;;;;5075898;28;20517;-69
2021/09/28 03:31:37;;;;;;;26.63;17.63;;;;;;;;;;5094201;28;20048;-69
2021/09/28 03:34:22;;;;;;;27.70;18.17;;;;;;;;;;5075439;28;20537;-70
2021/09/28 03:37:07;;;;;;;30.67;19.15;;;;;;;;;;5075949;28;20114;-69
2021/09/28 03:39:52;;;;;;;33.90;20.30;;;;;;;;;;5075619;28;20682;-70
2021/09/28 03:42:38;;;;;;;26.80;19.23;;;;;;;;;;5075557;28;20052;-70
2021/09/28 03:45:23;;;;;;;33.22;19.95;;;;;;;;;;5074347;28;20048;-69
2021/09/28 03:48:08;;;;;;;34.55;18.50;;;;;;;;;;5093980;28;20093;-69
2021/09/28 03:50:53;;;;;;;29.35;18.27;;;;;;;;;;5075462;28;20055;-69
2021/09/28 03:53:38;;;;;;;27.98;18.80;;;;;;;;;;5089987;28;20051;-69
2021/09/28 03:56:23;;;;;;;27.45;15.68;;;;;;;;;;5095501;28;20059;-70
2021/09/28 03:59:09;;;;;;;29.25;18.33;;;;;;;;;;5114114;28;20048;-70
2021/09/28 04:01:54;;;;;;;20.60;13.10;;;;;;;;;;5095801;28;20048;-70
2021/09/28 04:04:39;;;;;;;27.58;17.30;;;;;;;;;;5095507;28;20451;-70
2021/09/28 04:07:24;;;;;;;32.40;17.25;;;;;;;;;;5095316;28;20518;-70
2021/09/28 04:10:10;;;;;;;38.78;18.88;;;;;;;;;;5095468;28;20131;-69
2021/09/28 04:12:55;;;;;;;32.45;18.83;;;;;;;;;;5080774;28;20052;-69
2021/09/28 04:15:40;;;;;;;31.05;18.55;;;;;;;;;;5089883;28;20052;-69
2021/09/28 04:18:25;;;;;;;31.58;19.00;;;;;;;;;;5074833;28;20052;-70
2021/09/28 04:21:11;;;;;;;35.47;17.83;;;;;;;;;;5075109;28;20461;-70
2021/09/28 04:23:56;;;;;;;31.63;17.92;;;;;;;;;;5074533;28;20056;-69
2021/09/28 04:26:41;;;;;;;34.63;18.42;;;;;;;;;;5075057;28;20482;-70
2021/09/28 04:29:26;;;;;;;29.83;18.20;;;;;;;;;;5074713;28;20056;-70
2021/09/28 04:32:11;;;;;;;27.63;17.52;;;;;;;;;;5074754;28;20127;-69
2021/09/28 04:34:56;;;;;;;36.25;19.35;;;;;;;;;;5091568;28;20090;-69
2021/09/28 04:37:41;;;;;;;34.80;19.00;;;;;;;;;;5092862;28;20056;-70
2021/09/28 04:40:27;;;;;;;25.05;16.50;;;;;;;;;;5074560;28;20052;-70
2021/09/28 04:43:12;;;;;;;33.03;19.10;;;;;;;;;;5074533;28;20060;-70
2021/09/28 04:45:57;;;;;;;25.55;15.93;;;;;;;;;;5074272;28;20052;-70
2021/09/28 04:48:42;;;;;;;28.20;18.00;;;;;;;;;;5074462;28;20064;-70
2021/09/28 04:51:27;;;;;;;31.63;17.25;;;;;;;;;;5074339;28;20060;-69
2021/09/28 04:54:12;;;;;;;29.85;16.25;;;;;;;;;;5092297;28;20406;-69
2021/09/28 04:56:57;;;;;;;27.08;16.35;;;;;;;;;;5074246;28;20048;-70
2021/09/28 04:59:42;;;;;;;33.03;16.95;;;;;;;;;;5074337;28;20048;-70
2021/09/28 05:02:27;;;;;;;31.17;16.58;;;;;;;;;;5074135;28;20048;-69
2021/09/28 05:05:13;;;;;;;42.40;20.40;;;;;;;;;;5073855;28;20056;-69
2021/09/28 05:07:58;;;;;;;37.08;20.35;;;;;;;;;;5074085;28;20114;-68
2021/09/28 05:10:44;;;;;;;32.13;18.08;;;;;;;;;;5074103;28;20067;-68
2021/09/28 05:13:29;;;;;;;28.85;16.42;;;;;;;;;;5073873;28;20407;-69
2021/09/28 05:16:14;;;;;;;37.75;19.00;;;;;;;;;;5073932;28;20093;-68
2021/09/28 05:18:59;;;;;;;38.72;18.77;;;;;;;;;;5073934;28;20060;-69
2021/09/28 05:21:44;;;;;;;40.05;21.15;;;;;;;;;;5073742;28;20052;-68
2021/09/28 05:24:29;;;;;;;27.13;17.00;;;;;;;;;;5073331;28;20103;-68
2021/09/28 05:27:15;;;;;;;35.53;20.75;;;;;;;;;;5073560;28;20056;-68
2021/09/28 05:30:00;;;;;;;37.55;20.55;;;;;;;;;;5073713;28;20059;-68
2021/09/28 05:32:45;;;;;;;31.15;19.63;;;;;;;;;;5091917;28;20060;-69
2021/09/28 05:35:30;;;;;;;47.20;23.38;;;;;;;;;;5073305;28;20459;-69
2021/09/28 05:38:15;;;;;;;44.28;22.90;;;;;;;;;;5073554;28;20538;-69
2021/09/28 05:41:04;;;;;;;42.67;22.88;;;;;;;;;;5104116;28;20051;-68
2021/09/28 05:43:51;;;;;;;42.53;21.13;;;;;;;;;;5093119;28;20052;-70
2021/09/28 05:46:36;;;;;;;38.85;22.27;;;;;;;;;;5132209;22;20095;-67
2021/09/28 05:49:21;;;;;;;40.47;21.30;;;;;;;;;;5072083;28;20040;-67
2021/09/28 05:52:11;;;;;;;40.50;21.38;;;;;;;;;;5073360;28;20048;-66
2021/09/28 05:54:56;;;;;;;47.63;23.55;;;;;;;;;;5071276;28;20052;-66
2021/09/28 05:57:42;;;;;;;42.03;22.45;;;;;;;;;;5083583;28;20044;-66
2021/09/28 06:00:27;;;;;;;36.55;21.52;;;;;;;;;;5091944;28;20052;-66
2021/09/28 06:03:12;;;;;;;45.83;22.00;;;;;;;;;;5091821;28;20052;-66
2021/09/28 06:05:58;;;;;;;42.33;20.33;;;;;;;;;;5091893;28;20052;-66
2021/09/28 06:08:43;;;;;;;39.88;22.02;;;;;;;;;;5090938;28;20448;-66
2021/09/28 06:11:28;;;;;;;51.55;24.90;;;;;;;;;;5090722;28;20044;-66
2021/09/28 06:14:13;;;;;;;51.10;23.58;;;;;;;;;;5090600;28;20048;-66
2021/09/28 06:16:58;;;;;;;52.50;23.90;;;;;;;;;;5091740;28;20052;-66
2021/09/28 06:19:44;;;;;;;47.92;23.88;;;;;;;;;;5091579;28;20063;-67
2021/09/28 06:22:29;;;;;;;47.08;24.65;;;;;;;;;;5091586;28;20530;-65
2021/09/28 06:25:15;;;;;;;51.22;25.95;;;;;;;;;;5091526;28;20052;-65
2021/09/28 06:28:00;;;;;;;49.60;26.02;;;;;;;;;;5091564;28;20044;-67
2021/09/28 06:30:46;;;;;;;51.38;24.40;;;;;;;;;;5091718;28;20048;-66
2021/09/28 06:33:31;;;;;;;48.78;25.80;;;;;;;;;;5094169;28;20494;-66
2021/09/28 06:36:17;;;;;;;49.35;25.00;;;;;;;;;;5096491;28;20055;-67
2021/09/28 06:39:02;;;;;;;50.15;27.42;;;;;;;;;;5098602;28;20052;-67
2021/09/28 06:41:47;;;;;;;55.60;26.92;;;;;;;;;;5075548;28;20053;-68
2021/09/28 06:44:32;;;;;;;45.22;25.48;;;;;;;;;;5075961;28;20052;-66
2021/09/28 06:47:18;;;;;;;48.97;26.25;;;;;;;;;;5074507;28;20115;-65
2021/09/28 06:50:03;;;;;;;51.30;27.05;;;;;;;;;;5074814;28;20056;-65
2021/09/28 06:52:49;;;;;;;38.72;21.83;;;;;;;;;;5074782;28;20052;-66
2021/09/28 06:55:35;;;;;;;41.15;22.63;;;;;;;;;;5059319;28;20417;-65
2021/09/28 06:58:20;;;;;;;39.85;21.77;;;;;;;;;;5084423;28;20123;-64
2021/09/28 07:01:06;;;;;;;40.40;21.00;;;;;;;;;;5083913;28;20059;-64
2021/09/28 07:03:51;;;;;;;36.30;21.33;;;;;;;;;;5082456;28;20049;-66
2021/09/28 07:06:36;;;;;;;28.10;17.65;;;;;;;;;;5082028;28;20049;-65
2021/09/28 07:09:21;;;;;;;32.35;20.10;;;;;;;;;;5073065;28;20146;-65
2021/09/28 07:12:07;;;;;;;26.50;16.42;;;;;;;;;;5075254;28;20119;-66
2021/09/28 07:14:52;;;;;;;26.95;16.77;;;;;;;;;;5083112;28;20449;-67
2021/09/28 07:17:38;;;;;;;25.08;15.98;;;;;;;;;;5081170;28;20048;-67
2021/09/28 07:20:23;;;;;;;27.17;14.32;;;;;;;;;;5074203;28;20052;-67
2021/09/28 07:23:09;;;;;;;26.77;16.02;;;;;;;;;;5074038;28;20086;-66
2021/09/28 07:25:54;;;;;;;29.95;15.20;;;;;;;;;;5075241;28;20057;-67
2021/09/28 07:28:39;;;;;;;21.88;15.05;;;;;;;;;;5078592;28;20511;-67
2021/09/28 07:31:25;;;;;;;26.17;14.23;;;;;;;;;;5079027;28;20068;-68
2021/09/28 07:34:10;;;;;;;25.95;14.48;;;;;;;;;;5078270;28;20052;-67
2021/09/28 07:36:55;;;;;;;21.80;11.60;;;;;;;;;;5079824;28;20494;-67
2021/09/28 07:39:40;;;;;;;22.80;11.77;;;;;;;;;;5079880;28;20076;-67
2021/09/28 07:42:25;;;;;;;23.23;11.63;;;;;;;;;;5075930;28;20049;-67
2021/09/28 07:45:11;;;;;;;26.63;10.60;;;;;;;;;;5075227;28;20056;-67
2021/09/28 07:47:56;;;;;;;21.25;11.55;;;;;;;;;;5075751;28;20460;-68
2021/09/28 07:50:42;;;;;;;25.40;11.02;;;;;;;;;;5074182;28;20060;-66
2021/09/28 07:53:29;;;;;;;24.42;10.25;;;;;;;;;;5074740;28;20433;-67
2021/09/28 07:56:14;;;;;;;25.75;11.80;;;;;;;;;;5074344;28;20056;-68
2021/09/28 07:59:01;;;;;;;19.83;9.38;;;;;;;;;;5058946;28;20052;-68
2021/09/28 08:01:46;;;;;;;21.15;9.50;;;;;;;;;;5073805;28;20489;-68
2021/09/28 08:04:31;;;;;;;19.48;10.02;;;;;;;;;;5073074;28;20098;-67
2021/09/28 08:07:17;;;;;;;16.30;9.18;;;;;;;;;;5073494;28;20048;-67
2021/09/28 08:10:03;;;;;;;18.38;8.73;;;;;;;;;;5073172;28;20150;-67
2021/09/28 08:12:48;;;;;;;19.48;8.13;;;;;;;;;;5072201;28;20048;-67
2021/09/28 08:15:34;;;;;;;15.25;8.73;;;;;;;;;;5072780;28;20060;-67
2021/09/28 08:18:19;;;;;;;19.70;8.50;;;;;;;;;;5072900;28;20119;-67
2021/09/28 08:21:04;;;;;;;18.08;8.60;;;;;;;;;;5082364;28;20061;-67
2021/09/28 08:23:50;;;;;;;18.25;9.30;;;;;;;;;;5081289;28;20052;-67
2021/09/28 08:29:21;;;;;;;16.77;7.35;;;;;;;;;;5082719;28;20570;-68
2021/09/28 08:32:06;;;;;;;15.20;6.60;;;;;;;;;;5083293;28;20048;-67
2021/09/28 08:34:51;;;;;;;19.10;7.68;;;;;;;;;;5078908;28;20048;-60
2021/09/28 08:37:37;;;;;;;17.05;7.18;;;;;;;;;;5072413;28;20052;-60
2021/09/28 08:40:22;;;;;;;18.05;6.82;;;;;;;;;;5072728;28;20045;-61
2021/09/28 08:43:09;;;;;;;15.45;7.72;;;;;;;;;;5072532;28;20048;-61
2021/09/28 08:45:55;;;;;;;17.38;7.60;;;;;;;;;;5072332;28;20049;-60
2021/09/28 08:48:40;;;;;;;13.82;6.97;;;;;;;;;;5072204;28;20441;-61
2021/09/28 08:51:25;;;;;;;17.88;7.07;;;;;;;;;;5072433;28;20056;-61
2021/09/28 08:54:10;;;;;;;20.48;7.35;;;;;;;;;;5071997;28;20048;-61
2021/09/28 08:56:56;;;;;;;12.98;6.80;;;;;;;;;;5072380;28;20150;-61
2021/09/28 08:59:49;;;;;;;20.20;7.10;;;;;;;;;;5071810;28;20044;-61
2021/09/28 09:02:34;;;;;;;;;;;;;;;;;;5072582;28;20049;-62
2021/09/28 09:05:19;;;;;;;16.50;6.03;;;;;;;;;;5072076;28;19920;-62
2021/09/28 09:08:05;;;;;;;15.73;6.78;;;;;;;;;;5075689;28;20502;-63
2021/09/28 09:10:50;;;;;;;17.10;5.43;;;;;;;;;;5080058;28;20052;-63
2021/09/28 09:13:39;;;;;;;15.90;6.32;;;;;;;;;;5076062;28;20084;-63
2021/09/28 09:16:24;;;;;;;15.38;5.60;;;;;;;;;;5076908;28;20052;-62
2021/09/28 09:19:11;;;;;;;15.68;5.88;;;;;;;;;;5075034;28;20045;-63
2021/09/28 09:21:56;;;;;;;19.25;4.65;;;;;;;;;;5077553;28;20056;-61
2021/09/28 09:24:42;;;;;;;15.25;4.10;;;;;;;;;;5076620;28;20052;-63
2021/09/28 09:27:31;;;;;;;17.48;4.93;;;;;;;;;;5074458;28;20509;-62
2021/09/28 09:30:21;;;;;;;13.25;4.55;;;;;;;;;;5072202;28;20052;-62
2021/09/28 09:33:06;;;;;;;13.45;4.32;;;;;;;;;;5076097;28;20056;-60
2021/09/28 09:35:57;;;;;;;17.80;4.50;;;;;;;;;;5073316;28;20044;-60
2021/09/28 09:38:43;;;;;;;15.70;4.75;;;;;;;;;;5073482;28;20052;-60
2021/09/28 09:41:29;;;;;;;13.65;3.70;;;;;;;;;;5073542;28;20142;-60
2021/09/28 09:44:15;;;;;;;14.80;4.68;;;;;;;;;;5073134;28;20445;-60
2021/09/28 09:47:00;;;;;;;12.55;3.85;;;;;;;;;;5072302;28;20052;-61
2021/09/28 09:49:46;;;;;;;10.07;3.78;;;;;;;;;;5071831;28;20131;-61
2021/09/28 09:52:31;;;;;;;12.57;4.00;;;;;;;;;;5071640;28;20478;-61
2021/09/28 09:55:29;;;;;;;14.10;3.60;;;;;;;;;;5071498;28;20090;-61
2021/09/28 09:58:14;;;;;;;10.18;3.17;;;;;;;;;;5071742;28;20048;-60
2021/09/28 10:00:59;;;;;;;12.63;3.20;;;;;;;;;;5071505;28;20087;-60
2021/09/28 10:03:45;;;;;;;13.43;3.58;;;;;;;;;;5071536;28;20052;-60
2021/09/28 10:06:30;;;;;;;9.35;2.42;;;;;;;;;;5071664;28;20052;-60
2021/09/28 10:09:24;;;;;;;15.60;3.05;;;;;;;;;;5071419;28;20056;-60
2021/09/28 10:12:11;;;;;;;15.45;3.50;;;;;;;;;;5073643;28;20056;-60
2021/09/28 10:15:06;;;;;;;10.70;2.85;;;;;;;;;;5074877;28;20044;-61
2021/09/28 10:17:52;;;;;;;12.23;2.92;;;;;;;;;;5080071;28;20498;-61
2021/09/28 10:20:38;;;;;;;9.05;3.15;;;;;;;;;;5085775;28;20048;-62
2021/09/28 10:23:24;;;;;;;11.82;2.88;;;;;;;;;;5083211;28;20445;-61
2021/09/28 10:26:16;;;;;;;12.02;3.30;;;;;;;;;;5074949;28;20449;-61
2021/09/28 10:29:01;;;;;;;8.67;2.57;;;;;;;;;;5074013;28;20052;-61
2021/09/28 10:31:46;;;;;;;16.58;3.00;;;;;;;;;;5073772;28;20052;-61
2021/09/28 10:34:50;;;;;;;14.18;3.40;;;;;;;;;;5073838;28;20091;-60
2021/09/28 10:37:48;;;;;;;13.13;3.05;;;;;;;;;;5074557;28;20049;-60
2021/09/28 10:40:34;;;;;;;13.82;3.20;;;;;;;;;;5089297;28;20080;-59
2021/09/28 10:43:26;;;;;;;11.60;2.53;;;;;;;;;;5094212;28;20051;-60
2021/09/28 10:46:12;;;;;;;10.35;2.65;;;;;;;;;;5091929;28;20047;-60
2021/09/28 10:49:14;;;;;;;10.70;2.45;;;;;;;;;;5087309;28;20398;-59
2021/09/28 10:52:19;;;;;;;11.68;2.70;;;;;;;;;;5087639;28;20048;-61
2021/09/28 10:55:08;;;;;;;8.30;2.15;;;;;;;;;;5087375;28;20557;-60
2021/09/28 10:57:58;;;;;;;8.60;2.33;;;;;;;;;;5093694;28;20048;-58
2021/09/28 11:00:44;;;;;;;11.15;2.45;;;;;;;;;;5094045;28;20083;-59
2021/09/28 11:03:51;;;;;;;9.98;2.35;;;;;;;;;;5093642;28;20155;-59
2021/09/28 11:06:42;;;;;;;11.20;2.40;;;;;;;;;;5093038;28;20055;-60
2021/09/28 11:09:40;;;;;;;14.70;3.38;;;;;;;;;;5089836;28;20051;-60
2021/09/28 11:12:26;;;;;;;12.15;2.42;;;;;;;;;;5089202;28;20055;-60
2021/09/28 11:15:11;;;;;;;9.30;1.92;;;;;;;;;;5087535;28;20048;-59
2021/09/28 11:17:57;;;;;;;10.93;2.15;;;;;;;;;;5087411;28;20044;-59
2021/09/28 11:20:42;;;;;;;15.32;3.28;;;;;;;;;;5093636;28;20119;-59
2021/09/28 11:23:27;;;;;;;17.10;3.08;;;;;;;;;;5087582;28;20048;-61
2021/09/28 11:26:13;;;;;;;9.90;1.73;;;;;;;;;;5086805;28;20056;-60
2021/09/28 11:28:59;;;;;;;9.38;2.10;;;;;;;;;;5093015;28;20051;-59
2021/09/28 11:31:44;;;;;;;16.70;2.47;;;;;;;;;;5093064;28;20060;-58
2021/09/28 11:34:31;;;;;;;15.05;2.60;;;;;;;;;;5092975;28;20506;-59
2021/09/28 11:37:16;;;;;;;7.35;1.80;;;;;;;;;;5093378;28;20500;-57
2021/09/28 11:40:01;;;;;;;10.25;1.85;;;;;;;;;;5092477;28;20048;-59
2021/09/28 11:42:47;;;;;;;10.18;2.50;;;;;;;;;;5090644;28;20048;-59
2021/09/28 11:45:32;;;;;;;9.07;1.90;;;;;;;;;;5092465;28;20048;-59
2021/09/28 11:48:17;;;;;;;10.90;2.40;;;;;;;;;;5148612;22;20051;-62
2021/09/28 11:51:06;;;;;;;8.27;1.95;;;;;;;;;;5109485;27;20052;-62
2021/09/28 11:53:52;;;;;;;11.35;2.30;;;;;;;;;;5128295;27;20051;-62
2021/09/28 11:56:40;;;;;;;13.57;2.60;;;;;;;;;;5132395;27;20126;-62
2021/09/28 11:59:26;;;;;;;8.95;1.65;;;;;;;;;;5127242;27;20051;-62
2021/09/28 12:02:11;;;;;;;7.30;1.70;;;;;;;;;;5133814;27;20051;-62
2021/09/28 12:08:04;;;;;;;11.20;1.50;;;;;;;;;;5127027;27;20043;-61
2021/09/28 12:10:49;;;;;;;10.77;3.13;;;;;;;;;;5105904;27;20043;-62
2021/09/28 12:13:35;;;;;;;7.93;1.70;;;;;;;;;;5125826;27;20043;-62
2021/09/28 12:16:22;;;;;;;8.80;1.85;;;;;;;;;;5131934;27;21579;-61
2021/09/28 12:19:07;;;;;;;8.15;1.50;;;;;;;;;;5126733;27;20043;-62
2021/09/28 12:21:52;;;;;;;9.52;1.90;;;;;;;;;;5129888;27;20126;-61
2021/09/28 12:24:44;;;;;;;7.63;2.25;;;;;;;;;;5121978;27;20151;-61
2021/09/28 12:27:29;;;;;;;7.18;1.77;;;;;;;;;;5122240;27;20042;-61
2021/09/28 12:30:14;;;;;;;7.65;2.33;;;;;;;;;;5121115;27;20051;-61
2021/09/28 12:33:00;;;;;;;8.10;1.90;;;;;;;;;;5122377;27;20047;-62
2021/09/28 12:35:46;;;;;;;10.50;2.58;;;;;;;;;;5119890;27;20048;-61
2021/09/28 12:38:31;;;;;;;7.82;1.42;;;;;;;;;;5108765;27;20059;-61
2021/09/28 12:41:16;;;;;;;11.95;2.15;;;;;;;;;;5126533;27;20051;-62
2021/09/28 12:44:20;;;;;;;7.53;1.83;;;;;;;;;;5123775;27;20117;-60
2021/09/28 12:47:24;;;;;;;12.30;1.83;;;;;;;;;;5122578;27;20088;-61
2021/09/28 12:50:18;;;;;;;8.85;1.80;;;;;;;;;;5128288;27;20047;-61
2021/09/28 12:53:14;;;;;;;12.05;2.33;;;;;;;;;;5123148;27;20580;-62
2021/09/28 12:55:59;;;;;;;12.13;2.03;;;;;;;;;;5123045;27;20051;-62
2021/09/28 12:58:44;;;;;;;8.88;1.85;;;;;;;;;;5103360;27;20051;-61
2021/09/28 13:01:29;;;;;;;14.88;2.65;;;;;;;;;;5123539;27;20074;-62
2021/09/28 13:04:18;;;;;;;12.60;2.13;;;;;;;;;;5121053;27;20536;-63
2021/09/28 13:07:09;;;;;;;8.52;1.90;;;;;;;;;;5120905;27;20043;-61
2021/09/28 13:09:54;;;;;;;10.10;1.60;;;;;;;;;;5122397;27;20078;-62
2021/09/28 13:12:39;;;;;;;7.95;1.70;;;;;;;;;;5122884;27;20130;-61
2021/09/28 13:15:25;;;;;;;11.35;2.53;;;;;;;;;;5126200;27;20118;-61
2021/09/28 13:18:10;;;;;;;9.80;1.55;;;;;;;;;;5121053;27;20044;-62
2021/09/28 13:20:55;;;;;;;9.05;1.70;;;;;;;;;;5105251;27;20413;-63
2021/09/28 13:23:40;;;;;;;9.63;1.98;;;;;;;;;;5120751;27;20048;-63
2021/09/28 13:26:25;;;;;;;8.10;1.83;;;;;;;;;;5119593;28;20048;-65
2021/09/28 13:29:13;;;;;;;8.50;1.40;;;;;;;;;;5131954;28;20088;-65
2021/09/28 13:32:00;;;;;;;6.68;1.80;;;;;;;;;;5112959;28;20122;-64
2021/09/28 13:34:45;;;;;;;6.57;1.42;;;;;;;;;;5128235;28;20074;-64
2021/09/28 13:37:30;;;;;;;5.45;1.30;;;;;;;;;;5124425;28;20047;-65
2021/09/28 13:40:16;;;;;;;6.65;1.58;;;;;;;;;;5116780;28;20059;-65
2021/09/28 13:43:01;;;;;;;4.10;1.00;;;;;;;;;;5108543;28;20115;-66
2021/09/28 13:45:47;;;;;;;7.10;1.42;;;;;;;;;;5118052;28;20044;-65
2021/09/28 13:48:32;;;;;;;5.47;0.90;;;;;;;;;;5122981;27;20051;-65
2021/09/28 13:51:17;;;;;;;8.68;1.42;;;;;;;;;;5121538;27;20644;-65
2021/09/28 13:54:06;;;;;;;5.57;1.08;;;;;;;;;;5128170;27;20055;-67
2021/09/28 13:56:51;;;;;;;7.03;2.00;;;;;;;;;;5128445;27;20075;-66
2021/09/28 13:59:36;;;;;;;7.13;1.50;;;;;;;;;;5118032;27;20489;-65
2021/09/28 14:02:21;;;;;;;7.45;1.85;;;;;;;;;;5127805;27;20134;-66
2021/09/28 14:05:07;;;;;;;5.10;0.98;;;;;;;;;;5122320;27;20083;-66
2021/09/28 14:07:55;;;;;;;7.40;1.33;;;;;;;;;;5128718;27;20044;-65
2021/09/28 14:10:40;;;;;;;7.15;1.30;;;;;;;;;;5121650;27;20047;-66
2021/09/28 14:13:25;;;;;;;7.88;1.90;;;;;;;;;;5127079;27;20047;-66
2021/09/28 14:16:10;;;;;;;6.50;1.38;;;;;;;;;;5133127;27;20039;-62
2021/09/28 14:18:56;;;;;;;6.75;1.58;;;;;;;;;;5123205;27;20043;-62
2021/09/28 14:21:41;;;;;;;4.53;1.05;;;;;;;;;;5115752;27;20489;-62
2021/09/28 14:24:27;;;;;;;4.50;1.20;;;;;;;;;;5115471;27;20043;-63
2021/09/28 14:27:12;;;;;;;7.47;1.50;;;;;;;;;;5123790;27;20489;-62
2021/09/28 14:29:57;;;;;;;6.78;1.60;;;;;;;;;;5135820;27;20043;-62
2021/09/28 14:32:43;;;;;;;8.18;1.20;;;;;;;;;;5126135;27;20047;-62
2021/09/28 14:35:28;;;;;;;5.15;1.10;;;;;;;;;;5123593;27;20409;-62
2021/09/28 14:38:13;;;;;;;6.03;0.98;;;;;;;;;;5132572;27;20056;-61
2021/09/28 14:40:59;;;;;;;8.90;1.55;;;;;;;;;;5128249;27;20413;-63
2021/09/28 14:43:44;;;;;;;7.53;1.30;;;;;;;;;;5115101;27;20051;-61
2021/09/28 14:46:30;;;;;;;8.30;1.45;;;;;;;;;;5117738;27;20055;-61
2021/09/28 14:49:15;;;;;;;7.80;1.25;;;;;;;;;;5126282;27;20088;-62
2021/09/28 14:52:00;;;;;;;5.38;1.10;;;;;;;;;;5128354;27;20047;-61
2021/09/28 14:54:46;;;;;;;5.13;1.38;;;;;;;;;;5127806;27;20051;-63
2021/09/28 14:57:31;;;;;;;7.93;2.08;;;;;;;;;;5124834;27;20051;-64
2021/09/28 15:00:16;;;;;;;6.72;1.20;;;;;;;;;;5114298;27;20390;-63
2021/09/28 15:03:02;;;;;;;7.95;1.50;;;;;;;;;;5124900;27;20096;-63
2021/09/28 15:05:47;;;;;;;6.00;1.30;;;;;;;;;;5130540;27;20047;-63
2021/09/28 15:08:32;;;;;;;7.93;1.52;;;;;;;;;;5123911;27;20565;-62
2021/09/28 15:11:18;;;;;;;6.43;1.80;;;;;;;;;;5130045;27;20047;-62
2021/09/28 15:14:03;;;;;;;6.95;1.15;;;;;;;;;;5127763;27;20043;-62
2021/09/28 15:16:48;;;;;;;7.22;1.13;;;;;;;;;;5125512;27;20513;-62
2021/09/28 15:19:34;;;;;;;8.02;1.65;;;;;;;;;;5134112;27;20051;-62
2021/09/28 15:22:19;;;;;;;7.13;1.50;;;;;;;;;;5129418;27;20035;-62
2021/09/28 15:25:06;;;;;;;6.57;1.88;;;;;;;;;;5132208;27;20047;-63
2021/09/28 15:27:52;;;;;;;9.85;2.58;;;;;;;;;;5119399;27;20035;-64
2021/09/28 15:30:37;;;;;;;9.93;1.48;;;;;;;;;;5126313;27;20118;-63
2021/09/28 15:33:22;;;;;;;12.70;2.10;;;;;;;;;;5128097;27;20047;-63
2021/09/28 15:36:08;;;;;;;8.90;1.98;;;;;;;;;;5125953;27;20043;-62
2021/09/28 15:38:54;;;;;;;9.18;1.40;;;;;;;;;;5125879;27;20043;-62
2021/09/28 15:41:39;;;;;;;6.93;1.50;;;;;;;;;;5129845;27;20489;-62
2021/09/28 15:44:25;;;;;;;8.48;1.58;;;;;;;;;;5126249;27;20056;-63
2021/09/28 15:47:10;;;;;;;6.22;1.50;;;;;;;;;;5123623;27;20052;-62
2021/09/28 15:49:55;;;;;;;8.77;1.50;;;;;;;;;;5121549;27;20451;-62
2021/09/28 15:52:41;;;;;;;8.35;1.70;;;;;;;;;;5124628;27;20122;-62
2021/09/28 15:55:26;;;;;;;10.02;1.58;;;;;;;;;;5125908;27;20077;-62
2021/09/28 15:58:11;;;;;;;9.70;1.67;;;;;;;;;;5122023;27;20043;-62
2021/09/28 16:00:57;;;;;;;7.45;1.88;;;;;;;;;;5124675;27;20047;-63
2021/09/28 16:03:43;;;;;;;8.90;1.83;;;;;;;;;;5124362;27;20421;-63
2021/09/28 16:06:28;;;;;;;4.30;1.17;;;;;;;;;;5121203;27;20055;-63
2021/09/28 16:09:14;;;;;;;6.50;1.42;;;;;;;;;;5125372;27;20118;-63
2021/09/28 16:11:59;;;;;;;12.15;1.50;;;;;;;;;;5117235;27;20047;-63
2021/09/28 16:14:44;;;;;;;9.38;1.80;;;;;;;;;;5125580;27;20055;-63
2021/09/28 16:17:29;;;;;;;6.15;1.75;;;;;;;;;;5125679;27;20052;-62
2021/09/28 16:20:15;;;;;;;7.43;1.30;;;;;;;;;;5125838;27;20051;-63
2021/09/28 16:23:00;;;;;;;11.93;1.75;;;;;;;;;;5129121;27;20572;-62
2021/09/28 16:25:45;;;;;;;10.38;1.50;;;;;;;;;;5122915;27;20452;-62